sensor_id;sensor_type;location;lat;lon;timestamp;temperature;humidity
49052;DHT22;34866;48.670;18.260;2022-09-02T00:02:23;384.50;2329.60
49052;DHT22;34866;48.670;18.260;2022-09-02T00:04:55;384.40;2329.60
49052;DHT22;34866;48.670;18.260;2022-09-02T00:07:21;384.30;2329.60
49052;DHT22;34866;48.670;18.260;2022-09-02T00:09:52;384.20;2329.60
49052;DHT22;34866;48.670;18.260;2022-09-02T00:12:20;384.10;2329.60
49052;DHT22;34866;48.670;18.260;2022-09-02T00:14:46;384.10;2329.60
49052;DHT22;34866;48.670;18.260;2022-09-02T00:17:38;384.00;2329.60
49052;DHT22;34866;48.670;18.260;2022-09-02T00:20:06;384.00;2329.60
49052;DHT22;34866;48.670;18.260;2022-09-02T00:22:32;384.00;2329.60
49052;DHT22;34866;48.670;18.260;2022-09-02T00:25:18;359.30;2329.60
49052;DHT22;34866;48.670;18.260;2022-09-02T00:27:47;359.20;2329.60
49052;DHT22;34866;48.670;18.260;2022-09-02T00:30:12;359.20;2329.60
49052;DHT22;34866;48.670;18.260;2022-09-02T00:32:40;359.20;2329.60
49052;DHT22;34866;48.670;18.260;2022-09-02T00:35:07;359.20;2329.60
49052;DHT22;34866;48.670;18.260;2022-09-02T00:37:33;359.10;2329.60
49052;DHT22;34866;48.670;18.260;2022-09-02T00:39:59;359.10;2329.60
49052;DHT22;34866;48.670;18.260;2022-09-02T00:42:25;358.90;2329.60
49052;DHT22;34866;48.670;18.260;2022-09-02T00:44:52;358.80;2329.60
49052;DHT22;34866;48.670;18.260;2022-09-02T00:47:21;359.00;2329.60
49052;DHT22;34866;48.670;18.260;2022-09-02T00:49:50;358.90;2329.60
49052;DHT22;34866;48.670;18.260;2022-09-02T00:52:21;358.90;2329.60
49052;DHT22;34866;48.670;18.260;2022-09-02T00:54:53;358.80;2329.60
49052;DHT22;34866;48.670;18.260;2022-09-02T00:57:21;358.80;2329.60
49052;DHT22;34866;48.670;18.260;2022-09-02T01:02:33;358.80;2329.60
49052;DHT22;34866;48.670;18.260;2022-09-02T01:05:00;358.80;2329.60
49052;DHT22;34866;48.670;18.260;2022-09-02T01:07:30;358.80;2329.60
49052;DHT22;34866;48.670;18.260;2022-09-02T01:10:00;358.80;2329.60
49052;DHT22;34866;48.670;18.260;2022-09-02T01:12:28;358.80;2329.60
49052;DHT22;34866;48.670;18.260;2022-09-02T01:14:56;358.80;2329.60
49052;DHT22;34866;48.670;18.260;2022-09-02T01:17:23;358.60;2329.60
49052;DHT22;34866;48.670;18.260;2022-09-02T01:20:03;358.80;2329.60
49052;DHT22;34866;48.670;18.260;2022-09-02T01:22:31;358.80;2329.60
49052;DHT22;34866;48.670;18.260;2022-09-02T01:25:02;358.80;2329.60
49052;DHT22;34866;48.670;18.260;2022-09-02T01:27:29;358.80;2329.60
49052;DHT22;34866;48.670;18.260;2022-09-02T01:30:00;358.90;2329.60
49052;DHT22;34866;48.670;18.260;2022-09-02T01:32:28;358.90;2329.60
49052;DHT22;34866;48.670;18.260;2022-09-02T01:35:19;358.80;2329.60
49052;DHT22;34866;48.670;18.260;2022-09-02T01:37:46;358.90;2329.60
49052;DHT22;34866;48.670;18.260;2022-09-02T01:40:17;358.90;2073.60
49052;DHT22;34866;48.670;18.260;2022-09-02T01:42:45;358.90;2304.00
49052;DHT22;34866;48.670;18.260;2022-09-02T01:45:12;358.90;2150.40
49052;DHT22;34866;48.670;18.260;2022-09-02T01:47:37;358.90;2329.60
49052;DHT22;34866;48.670;18.260;2022-09-02T01:50:06;358.80;2329.60
49052;DHT22;34866;48.670;18.260;2022-09-02T01:52:33;358.70;2048.00
49052;DHT22;34866;48.670;18.260;2022-09-02T01:55:00;358.80;2329.60
49052;DHT22;34866;48.670;18.260;2022-09-02T01:57:29;358.80;2099.20
49052;DHT22;34866;48.670;18.260;2022-09-02T01:59:57;358.60;2329.60
49052;DHT22;34866;48.670;18.260;2022-09-02T02:02:23;358.60;2329.60
49052;DHT22;34866;48.670;18.260;2022-09-02T02:04:50;358.70;2329.60
49052;DHT22;34866;48.670;18.260;2022-09-02T02:07:18;358.70;2329.60
49052;DHT22;34866;48.670;18.260;2022-09-02T02:09:44;358.70;2329.60
49052;DHT22;34866;48.670;18.260;2022-09-02T02:12:14;358.70;2329.60
49052;DHT22;34866;48.670;18.260;2022-09-02T02:14:44;358.70;2329.60
49052;DHT22;34866;48.670;18.260;2022-09-02T02:17:10;358.90;2329.60
49052;DHT22;34866;48.670;18.260;2022-09-02T02:19:36;358.80;2329.60
49052;DHT22;34866;48.670;18.260;2022-09-02T02:22:02;358.80;2329.60
49052;DHT22;34866;48.670;18.260;2022-09-02T02:24:31;358.90;2329.60
49052;DHT22;34866;48.670;18.260;2022-09-02T02:27:00;358.80;2329.60
49052;DHT22;34866;48.670;18.260;2022-09-02T02:29:46;358.80;2329.60
49052;DHT22;34866;48.670;18.260;2022-09-02T02:32:12;358.80;2329.60
49052;DHT22;34866;48.670;18.260;2022-09-02T02:34:39;358.80;2329.60
49052;DHT22;34866;48.670;18.260;2022-09-02T02:37:06;358.80;2329.60
49052;DHT22;34866;48.670;18.260;2022-09-02T02:39:32;358.80;2329.60
49052;DHT22;34866;48.670;18.260;2022-09-02T02:41:58;358.90;2329.60
49052;DHT22;34866;48.670;18.260;2022-09-02T02:44:23;358.70;2329.60
49052;DHT22;34866;48.670;18.260;2022-09-02T02:46:50;358.80;2329.60
49052;DHT22;34866;48.670;18.260;2022-09-02T02:49:19;358.80;2329.60
49052;DHT22;34866;48.670;18.260;2022-09-02T02:51:47;358.80;2329.60
49052;DHT22;34866;48.670;18.260;2022-09-02T02:54:14;358.70;2329.60
49052;DHT22;34866;48.670;18.260;2022-09-02T02:56:41;358.90;2329.60
49052;DHT22;34866;48.670;18.260;2022-09-02T02:59:09;358.80;2329.60
49052;DHT22;34866;48.670;18.260;2022-09-02T03:01:37;358.90;2329.60
49052;DHT22;34866;48.670;18.260;2022-09-02T03:04:04;358.90;2329.60
49052;DHT22;34866;48.670;18.260;2022-09-02T03:06:30;358.90;2329.60
49052;DHT22;34866;48.670;18.260;2022-09-02T03:08:58;359.00;2329.60
49052;DHT22;34866;48.670;18.260;2022-09-02T03:11:25;359.00;2329.60
49052;DHT22;34866;48.670;18.260;2022-09-02T03:14:08;359.00;2329.60
49052;DHT22;34866;48.670;18.260;2022-09-02T03:16:48;358.80;2329.60
49052;DHT22;34866;48.670;18.260;2022-09-02T03:19:14;358.90;2329.60
49052;DHT22;34866;48.670;18.260;2022-09-02T03:21:46;358.80;2329.60
49052;DHT22;34866;48.670;18.260;2022-09-02T03:24:19;358.70;2329.60
49052;DHT22;34866;48.670;18.260;2022-09-02T03:26:48;358.80;2329.60
49052;DHT22;34866;48.670;18.260;2022-09-02T03:29:15;358.80;2329.60
49052;DHT22;34866;48.670;18.260;2022-09-02T03:31:40;358.90;2329.60
49052;DHT22;34866;48.670;18.260;2022-09-02T03:34:06;359.00;2329.60
49052;DHT22;34866;48.670;18.260;2022-09-02T03:36:35;358.90;2329.60
49052;DHT22;34866;48.670;18.260;2022-09-02T03:39:10;358.80;2329.60
49052;DHT22;34866;48.670;18.260;2022-09-02T03:41:36;358.80;2329.60
49052;DHT22;34866;48.670;18.260;2022-09-02T03:44:12;358.80;2329.60
49052;DHT22;34866;48.670;18.260;2022-09-02T03:47:01;358.80;2329.60
49052;DHT22;34866;48.670;18.260;2022-09-02T03:49:27;358.70;2329.60
49052;DHT22;34866;48.670;18.260;2022-09-02T03:51:53;358.70;2329.60
49052;DHT22;34866;48.670;18.260;2022-09-02T03:54:18;358.90;2329.60
49052;DHT22;34866;48.670;18.260;2022-09-02T03:56:45;358.80;2329.60
49052;DHT22;34866;48.670;18.260;2022-09-02T03:59:11;358.70;2329.60
49052;DHT22;34866;48.670;18.260;2022-09-02T04:01:37;358.80;2329.60
49052;DHT22;34866;48.670;18.260;2022-09-02T04:04:06;358.80;2329.60
49052;DHT22;34866;48.670;18.260;2022-09-02T04:06:32;358.80;2329.60
49052;DHT22;34866;48.670;18.260;2022-09-02T04:09:03;358.70;2329.60
49052;DHT22;34866;48.670;18.260;2022-09-02T04:11:31;358.70;2329.60
49052;DHT22;34866;48.670;18.260;2022-09-02T04:13:58;358.60;2329.60
49052;DHT22;34866;48.670;18.260;2022-09-02T04:16:25;358.60;2329.60
49052;DHT22;34866;48.670;18.260;2022-09-02T04:18:54;358.70;2329.60
49052;DHT22;34866;48.670;18.260;2022-09-02T04:21:23;358.50;2329.60
49052;DHT22;34866;48.670;18.260;2022-09-02T04:23:49;358.50;2150.40
49052;DHT22;34866;48.670;18.260;2022-09-02T04:26:18;358.40;2278.40
49052;DHT22;34866;48.670;18.260;2022-09-02T04:28:45;358.40;2201.60
49052;DHT22;34866;48.670;18.260;2022-09-02T04:31:17;358.60;2329.60
49052;DHT22;34866;48.670;18.260;2022-09-02T04:33:47;358.60;2329.60
49052;DHT22;34866;48.670;18.260;2022-09-02T04:36:15;358.40;2201.60
49052;DHT22;34866;48.670;18.260;2022-09-02T04:38:42;358.50;2278.40
49052;DHT22;34866;48.670;18.260;2022-09-02T04:41:30;358.60;2329.60
49052;DHT22;34866;48.670;18.260;2022-09-02T04:43:58;358.60;2073.60
49052;DHT22;34866;48.670;18.260;2022-09-02T04:46:27;358.60;2329.60
49052;DHT22;34866;48.670;18.260;2022-09-02T04:48:55;358.70;2022.40
49052;DHT22;34866;48.670;18.260;2022-09-02T04:51:23;358.70;2329.60
49052;DHT22;34866;48.670;18.260;2022-09-02T04:53:51;358.80;2304.00
49052;DHT22;34866;48.670;18.260;2022-09-02T04:56:23;358.80;1996.80
49052;DHT22;34866;48.670;18.260;2022-09-02T04:58:54;358.90;2329.60
49052;DHT22;34866;48.670;18.260;2022-09-02T05:01:25;359.00;2329.60
49052;DHT22;34866;48.670;18.260;2022-09-02T05:03:52;358.90;2329.60
49052;DHT22;34866;48.670;18.260;2022-09-02T05:06:37;358.90;2329.60
49052;DHT22;34866;48.670;18.260;2022-09-02T05:09:04;359.00;2227.20
49052;DHT22;34866;48.670;18.260;2022-09-02T05:11:31;359.10;2329.60
49052;DHT22;34866;48.670;18.260;2022-09-02T05:14:00;359.10;2329.60
49052;DHT22;34866;48.670;18.260;2022-09-02T05:16:34;359.10;2329.60
49052;DHT22;34866;48.670;18.260;2022-09-02T05:19:08;359.20;2329.60
49052;DHT22;34866;48.670;18.260;2022-09-02T05:21:43;359.30;2329.60
49052;DHT22;34866;48.670;18.260;2022-09-02T05:24:30;359.20;2329.60
49052;DHT22;34866;48.670;18.260;2022-09-02T05:26:58;384.60;2329.60
49052;DHT22;34866;48.670;18.260;2022-09-02T05:29:25;359.30;2329.60
49052;DHT22;34866;48.670;18.260;2022-09-02T05:31:52;359.30;2329.60
49052;DHT22;34866;48.670;18.260;2022-09-02T05:34:19;359.30;2329.60
49052;DHT22;34866;48.670;18.260;2022-09-02T05:36:56;359.30;2329.60
49052;DHT22;34866;48.670;18.260;2022-09-02T05:39:21;384.00;2329.60
49052;DHT22;34866;48.670;18.260;2022-09-02T05:41:47;359.30;2329.60
49052;DHT22;34866;48.670;18.260;2022-09-02T05:44:14;384.00;2329.60
49052;DHT22;34866;48.670;18.260;2022-09-02T05:46:40;384.00;2329.60
49052;DHT22;34866;48.670;18.260;2022-09-02T05:49:05;384.10;2329.60
49052;DHT22;34866;48.670;18.260;2022-09-02T05:51:58;384.10;2329.60
49052;DHT22;34866;48.670;18.260;2022-09-02T05:54:49;384.10;2329.60
49052;DHT22;34866;48.670;18.260;2022-09-02T05:57:16;384.20;2329.60
49052;DHT22;34866;48.670;18.260;2022-09-02T05:59:54;384.20;2329.60
49052;DHT22;34866;48.670;18.260;2022-09-02T06:02:23;384.20;2329.60
49052;DHT22;34866;48.670;18.260;2022-09-02T06:04:51;384.20;2329.60
49052;DHT22;34866;48.670;18.260;2022-09-02T06:07:22;384.20;2329.60
49052;DHT22;34866;48.670;18.260;2022-09-02T06:09:49;384.50;2329.60
49052;DHT22;34866;48.670;18.260;2022-09-02T06:12:17;384.40;2329.60
49052;DHT22;34866;48.670;18.260;2022-09-02T06:14:46;384.50;2329.60
49052;DHT22;34866;48.670;18.260;2022-09-02T06:17:21;384.50;2329.60
49052;DHT22;34866;48.670;18.260;2022-09-02T06:20:10;384.70;2329.60
49052;DHT22;34866;48.670;18.260;2022-09-02T06:22:35;384.70;2329.60
49052;DHT22;34866;48.670;18.260;2022-09-02T06:25:21;384.70;2329.60
49052;DHT22;34866;48.670;18.260;2022-09-02T06:27:50;384.80;2329.60
49052;DHT22;34866;48.670;18.260;2022-09-02T06:30:19;384.90;2329.60
49052;DHT22;34866;48.670;18.260;2022-09-02T06:32:44;409.60;2355.20
49052;DHT22;34866;48.670;18.260;2022-09-02T06:35:11;409.60;2355.20
49052;DHT22;34866;48.670;18.260;2022-09-02T06:37:38;409.60;2355.20
49052;DHT22;34866;48.670;18.260;2022-09-02T06:40:06;409.70;2355.20
49052;DHT22;34866;48.670;18.260;2022-09-02T06:42:32;409.80;2355.20
49052;DHT22;34866;48.670;18.260;2022-09-02T06:44:59;409.80;2355.20
49052;DHT22;34866;48.670;18.260;2022-09-02T06:47:34;409.90;2355.20
49052;DHT22;34866;48.670;18.260;2022-09-02T06:50:02;410.10;2355.20
49052;DHT22;34866;48.670;18.260;2022-09-02T06:52:31;409.90;2355.20
49052;DHT22;34866;48.670;18.260;2022-09-02T06:55:18;410.00;2355.20
49052;DHT22;34866;48.670;18.260;2022-09-02T06:57:44;410.20;2355.20
49052;DHT22;34866;48.670;18.260;2022-09-02T07:00:10;410.40;2355.20
49052;DHT22;34866;48.670;18.260;2022-09-02T07:02:36;410.50;2355.20
49052;DHT22;34866;48.670;18.260;2022-09-02T07:05:02;435.30;2355.20
49052;DHT22;34866;48.670;18.260;2022-09-02T07:07:37;435.20;2355.20
49052;DHT22;34866;48.670;18.260;2022-09-02T07:10:07;435.20;2355.20
49052;DHT22;34866;48.670;18.260;2022-09-02T07:12:36;410.40;2355.20
49052;DHT22;34866;48.670;18.260;2022-09-02T07:15:03;435.20;2355.20
49052;DHT22;34866;48.670;18.260;2022-09-02T07:17:31;435.50;2355.20
49052;DHT22;34866;48.670;18.260;2022-09-02T07:19:58;435.70;2355.20
49052;DHT22;34866;48.670;18.260;2022-09-02T07:22:27;410.50;2355.20
49052;DHT22;34866;48.670;18.260;2022-09-02T07:24:56;435.80;2355.20
49052;DHT22;34866;48.670;18.260;2022-09-02T07:27:22;435.70;2355.20
49052;DHT22;34866;48.670;18.260;2022-09-02T07:29:48;460.90;2380.80
49052;DHT22;34866;48.670;18.260;2022-09-02T07:32:15;486.50;2073.60
49052;DHT22;34866;48.670;18.260;2022-09-02T07:35:01;486.60;1689.60
49052;DHT22;34866;48.670;18.260;2022-09-02T07:37:30;436.00;2355.20
49052;DHT22;34866;48.670;18.260;2022-09-02T07:39:57;436.00;2355.20
49052;DHT22;34866;48.670;18.260;2022-09-02T07:42:26;436.00;2355.20
49052;DHT22;34866;48.670;18.260;2022-09-02T07:44:55;436.10;2355.20
49052;DHT22;34866;48.670;18.260;2022-09-02T07:47:36;460.80;2355.20
49052;DHT22;34866;48.670;18.260;2022-09-02T07:50:03;461.00;2380.80
49052;DHT22;34866;48.670;18.260;2022-09-02T07:52:51;460.90;2022.40
49052;DHT22;34866;48.670;18.260;2022-09-02T07:55:18;461.10;1894.40
49052;DHT22;34866;48.670;18.260;2022-09-02T07:57:44;461.00;1740.80
49052;DHT22;34866;48.670;18.260;2022-09-02T08:00:17;461.20;1920.00
49052;DHT22;34866;48.670;18.260;2022-09-02T08:02:44;461.10;1664.00
49052;DHT22;34866;48.670;18.260;2022-09-02T08:05:11;461.30;1843.20
49052;DHT22;34866;48.670;18.260;2022-09-02T08:07:40;461.40;1817.60
49052;DHT22;34866;48.670;18.260;2022-09-02T08:10:14;461.30;1536.00
49052;DHT22;34866;48.670;18.260;2022-09-02T08:13:02;461.40;1484.80
49052;DHT22;34866;48.670;18.260;2022-09-02T08:15:33;461.50;1561.60
49052;DHT22;34866;48.670;18.260;2022-09-02T08:18:01;461.50;1587.20
49052;DHT22;34866;48.670;18.260;2022-09-02T08:20:28;461.70;1689.60
49052;DHT22;34866;48.670;18.260;2022-09-02T08:22:59;461.60;1305.60
49052;DHT22;34866;48.670;18.260;2022-09-02T08:25:25;461.70;1459.20
49052;DHT22;34866;48.670;18.260;2022-09-02T08:28:11;461.60;1254.40
49052;DHT22;34866;48.670;18.260;2022-09-02T08:30:40;486.40;1305.60
49052;DHT22;34866;48.670;18.260;2022-09-02T08:33:06;486.50;1382.40
49052;DHT22;34866;48.670;18.260;2022-09-02T08:35:33;486.40;1305.60
49052;DHT22;34866;48.670;18.260;2022-09-02T08:38:01;486.50;1305.60
49052;DHT22;34866;48.670;18.260;2022-09-02T08:40:51;486.50;1280.00
49052;DHT22;34866;48.670;18.260;2022-09-02T08:43:40;486.60;1280.00
49052;DHT22;34866;48.670;18.260;2022-09-02T08:46:10;486.50;1382.40
49052;DHT22;34866;48.670;18.260;2022-09-02T08:48:49;486.50;1459.20
49052;DHT22;34866;48.670;18.260;2022-09-02T08:51:33;486.50;1254.40
49052;DHT22;34866;48.670;18.260;2022-09-02T08:54:27;486.80;1305.60
49052;DHT22;34866;48.670;18.260;2022-09-02T08:56:55;486.90;1356.80
49052;DHT22;34866;48.670;18.260;2022-09-02T08:59:40;588.80;1280.00
49052;DHT22;34866;48.670;18.260;2022-09-02T09:08:22;487.20;1203.20
49052;DHT22;34866;48.670;18.260;2022-09-02T09:11:06;487.10;1152.00
49052;DHT22;34866;48.670;18.260;2022-09-02T09:16:55;487.30;1152.00
49052;DHT22;34866;48.670;18.260;2022-09-02T09:22:21;512.20;1152.00
49052;DHT22;34866;48.670;18.260;2022-09-02T09:24:51;512.20;1126.40
49052;DHT22;34866;48.670;18.260;2022-09-02T09:27:46;512.00;1152.00
49052;DHT22;34866;48.670;18.260;2022-09-02T09:30:22;512.20;1126.40
49052;DHT22;34866;48.670;18.260;2022-09-02T09:32:51;512.60;1049.60
49052;DHT22;34866;48.670;18.260;2022-09-02T09:35:26;512.50;1152.00
49052;DHT22;34866;48.670;18.260;2022-09-02T09:37:54;512.90;1177.60
49052;DHT22;34866;48.670;18.260;2022-09-02T09:40:30;537.60;1203.20
49052;DHT22;34866;48.670;18.260;2022-09-02T09:43:11;537.70;1152.00
49052;DHT22;34866;48.670;18.260;2022-09-02T09:45:45;537.70;1152.00
49052;DHT22;34866;48.670;18.260;2022-09-02T09:48:25;537.80;1100.80
49052;DHT22;34866;48.670;18.260;2022-09-02T09:53:30;537.60;947.20
49052;DHT22;34866;48.670;18.260;2022-09-02T09:56:02;512.80;896.00
49052;DHT22;34866;48.670;18.260;2022-09-02T09:58:46;512.90;947.20
49052;DHT22;34866;48.670;18.260;2022-09-02T10:01:35;512.80;972.80
49052;DHT22;34866;48.670;18.260;2022-09-02T10:04:24;537.70;819.20
49052;DHT22;34866;48.670;18.260;2022-09-02T10:07:52;537.60;844.80
49052;DHT22;34866;48.670;18.260;2022-09-02T10:10:20;537.90;921.60
49052;DHT22;34866;48.670;18.260;2022-09-02T10:12:52;537.70;793.60
49052;DHT22;34866;48.670;18.260;2022-09-02T10:16:11;538.10;921.60
49052;DHT22;34866;48.670;18.260;2022-09-02T10:18:54;537.90;844.80
49052;DHT22;34866;48.670;18.260;2022-09-02T10:30:10;538.40;768.00
49052;DHT22;34866;48.670;18.260;2022-09-02T10:44:02;563.40;665.60
49052;DHT22;34866;48.670;18.260;2022-09-02T10:46:54;563.30;691.20
49052;DHT22;34866;48.670;18.260;2022-09-02T10:55:20;564.10;665.60
49052;DHT22;34866;48.670;18.260;2022-09-02T10:58:06;588.90;640.00
49052;DHT22;34866;48.670;18.260;2022-09-02T11:00:34;589.00;614.40
49052;DHT22;34866;48.670;18.260;2022-09-02T11:03:24;563.90;665.60
49052;DHT22;34866;48.670;18.260;2022-09-02T11:06:03;563.30;691.20
49052;DHT22;34866;48.670;18.260;2022-09-02T11:09:18;563.90;665.60
49052;DHT22;34866;48.670;18.260;2022-09-02T11:11:54;563.90;614.40
49052;DHT22;34866;48.670;18.260;2022-09-02T11:18:08;588.80;614.40
49052;DHT22;34866;48.670;18.260;2022-09-02T11:20:43;589.20;588.80
49052;DHT22;34866;48.670;18.260;2022-09-02T11:23:21;564.10;563.20
49052;DHT22;34866;48.670;18.260;2022-09-02T11:26:24;589.20;563.20
49052;DHT22;34866;48.670;18.260;2022-09-02T11:29:11;589.50;665.60
49052;DHT22;34866;48.670;18.260;2022-09-02T11:34:34;589.50;563.20
49052;DHT22;34866;48.670;18.260;2022-09-02T11:37:08;614.50;563.20
49052;DHT22;34866;48.670;18.260;2022-09-02T11:39:50;589.20;486.40
49052;DHT22;34866;48.670;18.260;2022-09-02T11:45:10;589.30;665.60
49052;DHT22;34866;48.670;18.260;2022-09-02T11:53:30;589.50;486.40
49052;DHT22;34866;48.670;18.260;2022-09-02T11:56:18;589.60;512.00
49052;DHT22;34866;48.670;18.260;2022-09-02T11:58:49;589.20;486.40
49052;DHT22;34866;48.670;18.260;2022-09-02T12:01:46;589.10;537.60
49052;DHT22;34866;48.670;18.260;2022-09-02T12:23:08;538.20;640.00
49052;DHT22;34866;48.670;18.260;2022-09-02T12:25:58;538.30;742.40
49052;DHT22;34866;48.670;18.260;2022-09-02T12:28:29;538.20;640.00
49052;DHT22;34866;48.670;18.260;2022-09-02T12:33:36;538.20;640.00
49052;DHT22;34866;48.670;18.260;2022-09-02T12:36:04;538.10;640.00
49052;DHT22;34866;48.670;18.260;2022-09-02T12:38:40;538.50;640.00
49052;DHT22;34866;48.670;18.260;2022-09-02T12:52:38;588.90;563.20
49052;DHT22;34866;48.670;18.260;2022-09-02T12:55:14;564.00;486.40
49052;DHT22;34866;48.670;18.260;2022-09-02T12:57:44;588.80;563.20
49052;DHT22;34866;48.670;18.260;2022-09-02T13:00:25;589.10;537.60
49052;DHT22;34866;48.670;18.260;2022-09-02T13:05:38;589.00;537.60
49052;DHT22;34866;48.670;18.260;2022-09-02T13:11:33;588.90;614.40
49052;DHT22;34866;48.670;18.260;2022-09-02T13:33:42;614.70;486.40
49052;DHT22;34866;48.670;18.260;2022-09-02T13:36:35;614.40;588.80
49052;DHT22;34866;48.670;18.260;2022-09-02T13:42:13;589.30;460.80
49052;DHT22;34866;48.670;18.260;2022-09-02T13:44:40;589.00;435.20
49052;DHT22;34866;48.670;18.260;2022-09-02T13:47:36;589.70;614.40
49052;DHT22;34866;48.670;18.260;2022-09-02T13:50:26;589.50;435.20
49052;DHT22;34866;48.670;18.260;2022-09-02T13:53:32;589.50;460.80
49052;DHT22;34866;48.670;18.260;2022-09-02T13:56:45;589.30;486.40
49052;DHT22;34866;48.670;18.260;2022-09-02T14:00:12;589.30;588.80
49052;DHT22;34866;48.670;18.260;2022-09-02T14:02:56;588.80;460.80
49052;DHT22;34866;48.670;18.260;2022-09-02T14:05:59;588.80;486.40
49052;DHT22;34866;48.670;18.260;2022-09-02T14:09:07;589.30;563.20
49052;DHT22;34866;48.670;18.260;2022-09-02T14:11:41;588.90;409.60
49052;DHT22;34866;48.670;18.260;2022-09-02T14:14:33;564.10;486.40
49052;DHT22;34866;48.670;18.260;2022-09-02T14:17:29;614.50;460.80
49052;DHT22;34866;48.670;18.260;2022-09-02T14:21:14;564.00;537.60
49052;DHT22;34866;48.670;18.260;2022-09-02T14:24:15;589.10;537.60
49052;DHT22;34866;48.670;18.260;2022-09-02T14:27:22;614.40;537.60
49052;DHT22;34866;48.670;18.260;2022-09-02T14:33:45;563.80;563.20
49052;DHT22;34866;48.670;18.260;2022-09-02T14:36:35;563.50;486.40
49052;DHT22;34866;48.670;18.260;2022-09-02T14:43:33;563.70;512.00
49052;DHT22;34866;48.670;18.260;2022-09-02T14:46:54;563.60;614.40
49052;DHT22;34866;48.670;18.260;2022-09-02T14:49:31;563.40;486.40
49052;DHT22;34866;48.670;18.260;2022-09-02T14:52:09;563.40;486.40
49052;DHT22;34866;48.670;18.260;2022-09-02T14:54:52;563.60;614.40
49052;DHT22;34866;48.670;18.260;2022-09-02T14:58:06;563.90;537.60
49052;DHT22;34866;48.670;18.260;2022-09-02T15:01:04;589.20;640.00
49052;DHT22;34866;48.670;18.260;2022-09-02T15:03:57;589.10;563.20
49052;DHT22;34866;48.670;18.260;2022-09-02T15:06:54;589.20;563.20
49052;DHT22;34866;48.670;18.260;2022-09-02T15:09:41;589.00;537.60
49052;DHT22;34866;48.670;18.260;2022-09-02T15:12:34;588.90;588.80
49052;DHT22;34866;48.670;18.260;2022-09-02T15:15:20;563.90;614.40
49052;DHT22;34866;48.670;18.260;2022-09-02T15:17:46;563.60;665.60
49052;DHT22;34866;48.670;18.260;2022-09-02T15:20:34;563.50;691.20
49052;DHT22;34866;48.670;18.260;2022-09-02T15:23:38;563.80;716.80
49052;DHT22;34866;48.670;18.260;2022-09-02T15:26:24;588.80;563.20
49052;DHT22;34866;48.670;18.260;2022-09-02T15:29:11;589.30;665.60
49052;DHT22;34866;48.670;18.260;2022-09-02T15:31:39;588.80;460.80
49052;DHT22;34866;48.670;18.260;2022-09-02T15:34:15;563.80;563.20
49052;DHT22;34866;48.670;18.260;2022-09-02T15:37:08;563.60;614.40
49052;DHT22;34866;48.670;18.260;2022-09-02T15:40:13;563.40;614.40
49052;DHT22;34866;48.670;18.260;2022-09-02T15:42:52;538.50;716.80
49052;DHT22;34866;48.670;18.260;2022-09-02T15:45:23;538.30;691.20
49052;DHT22;34866;48.670;18.260;2022-09-02T15:48:12;538.20;614.40
49052;DHT22;34866;48.670;18.260;2022-09-02T15:51:20;538.10;793.60
49052;DHT22;34866;48.670;18.260;2022-09-02T15:54:05;537.90;768.00
49052;DHT22;34866;48.670;18.260;2022-09-02T15:57:23;537.60;716.80
49052;DHT22;34866;48.670;18.260;2022-09-02T16:00:37;512.90;716.80
49052;DHT22;34866;48.670;18.260;2022-09-02T16:03:07;538.30;768.00
49052;DHT22;34866;48.670;18.260;2022-09-02T16:06:33;563.20;691.20
49052;DHT22;34866;48.670;18.260;2022-09-02T16:09:34;563.50;768.00
49052;DHT22;34866;48.670;18.260;2022-09-02T16:12:33;563.60;716.80
49052;DHT22;34866;48.670;18.260;2022-09-02T16:15:25;563.60;588.80
49052;DHT22;34866;48.670;18.260;2022-09-02T16:18:24;563.70;588.80
49052;DHT22;34866;48.670;18.260;2022-09-02T16:21:31;563.60;588.80
49052;DHT22;34866;48.670;18.260;2022-09-02T16:24:22;563.30;614.40
49052;DHT22;34866;48.670;18.260;2022-09-02T16:27:09;538.20;665.60
49052;DHT22;34866;48.670;18.260;2022-09-02T16:30:33;538.30;768.00
49052;DHT22;34866;48.670;18.260;2022-09-02T16:36:45;538.00;716.80
49052;DHT22;34866;48.670;18.260;2022-09-02T16:42:36;538.10;716.80
49052;DHT22;34866;48.670;18.260;2022-09-02T16:45:24;538.20;768.00
49052;DHT22;34866;48.670;18.260;2022-09-02T16:51:36;537.80;614.40
49052;DHT22;34866;48.670;18.260;2022-09-02T16:54:38;537.60;614.40
49052;DHT22;34866;48.670;18.260;2022-09-02T16:57:04;512.90;768.00
49052;DHT22;34866;48.670;18.260;2022-09-02T16:59:53;512.80;972.80
49052;DHT22;34866;48.670;18.260;2022-09-02T17:03:06;512.60;742.40
49052;DHT22;34866;48.670;18.260;2022-09-02T17:06:30;512.70;742.40
49052;DHT22;34866;48.670;18.260;2022-09-02T17:09:17;512.70;921.60
49052;DHT22;34866;48.670;18.260;2022-09-02T17:11:51;512.70;768.00
49052;DHT22;34866;48.670;18.260;2022-09-02T17:14:42;512.70;896.00
49052;DHT22;34866;48.670;18.260;2022-09-02T17:17:11;512.70;844.80
49052;DHT22;34866;48.670;18.260;2022-09-02T17:19:42;512.70;896.00
49052;DHT22;34866;48.670;18.260;2022-09-02T17:22:32;512.60;870.40
49052;DHT22;34866;48.670;18.260;2022-09-02T17:25:14;512.50;921.60
49052;DHT22;34866;48.670;18.260;2022-09-02T17:27:59;512.30;844.80
49052;DHT22;34866;48.670;18.260;2022-09-02T17:30:31;512.10;947.20
49052;DHT22;34866;48.670;18.260;2022-09-02T17:32:56;512.10;921.60
49052;DHT22;34866;48.670;18.260;2022-09-02T17:35:37;512.10;921.60
49052;DHT22;34866;48.670;18.260;2022-09-02T17:38:47;512.00;844.80
49052;DHT22;34866;48.670;18.260;2022-09-02T17:41:18;487.20;870.40
49052;DHT22;34866;48.670;18.260;2022-09-02T17:44:08;487.20;896.00
49052;DHT22;34866;48.670;18.260;2022-09-02T17:46:37;487.10;1049.60
49052;DHT22;34866;48.670;18.260;2022-09-02T17:49:15;486.90;1152.00
49052;DHT22;34866;48.670;18.260;2022-09-02T17:52:17;486.70;1280.00
49052;DHT22;34866;48.670;18.260;2022-09-02T17:54:48;486.40;1740.80
49052;DHT22;34866;48.670;18.260;2022-09-02T17:57:50;461.60;2073.60